Terminal Aerodrome Forecast
Issued by NWS Portland, OR

Home | Current Version | Previous Version | Text Only | Print | Product List | Glossary On
Versions: 1 2 3 4 5 6 7 8 9 10 11 12 13 14 15 16 17 18 19 20 21 22 23 24
000
FTUS46 KPQR 291011 AAA
TAFSLE
TAF AMD
KSLE 291011Z 2910/3006 22010KT P6SM -RA SCT040 OVC060
      TEMPO 2910/2912 -TSRA BKN040CB OVC060
     FM291200 17013G25KT P6SM -RA SCT025 OVC050
     FM291500 18022G37KT P6SM -RA SCT025 OVC050
     FM291900 22014G23KT P6SM -SHRA SCT030 BKN050
     FM300300 20012KT P6SM -RA OVC040=

USA.gov is the U.S. government's official web portal to all federal, state and local government web resources and services.